Home

PKWA Terminal Aerodrome Forecast (TAF)small logo


TAF provided by NWS Guam
2015/05/05 06:36
TAF PKWA 050530Z 0506/0606 06011KT P6SM VCSH SCT020 SCT040

      



Site Map | Contact Us | Copyright © 2007 Atmospheric Technology Services Company. All rights reserved.